Time;durP1;ratioP1;P1;durP2;ratioP2;P2;SDS_P1;SDS_P2;PMS_P1;PMS_P2;Temp;Humidity;BMP_temperature;BMP_pressure;BME280_temperature;BME280_humidity;BME280_pressure;Samples;Min_cycle;Max_cycle;Signal;HPM_P1;HPM_P2
2021/12/21 00:01:18;;;;;;;6.95;3.40;;;-2.10;99.90;;;;;;5031956;28;20049;-86
2021/12/21 00:03:44;;;;;;;10.70;3.20;;;-2.50;99.90;;;;;;5031853;28;20058;-85
2021/12/21 00:06:09;;;;;;;8.75;2.85;;;-2.00;99.90;;;;;;5050097;28;20049;-86
2021/12/21 00:08:37;;;;;;;7.97;3.30;;;-2.20;99.90;;;;;;5035178;28;20371;-85
2021/12/21 00:11:02;;;;;;;7.03;2.80;;;-2.20;99.90;;;;;;5031749;28;20068;-87
2021/12/21 00:16:08;;;;;;;11.02;3.13;;;-2.20;99.90;;;;;;5053003;28;20119;-85
2021/12/21 00:18:44;;;;;;;5.70;2.13;;;-2.20;99.90;;;;;;5050973;28;20560;-87
2021/12/21 00:21:30;;;;;;;8.27;2.40;;;-2.20;99.90;;;;;;5052952;28;20504;-87
2021/12/21 00:24:00;;;;;;;;;;;-2.20;99.90;;;;;;5045791;28;20049;-86
2021/12/21 00:26:26;;;;;;;5.45;2.33;;;-2.10;99.90;;;;;;5032883;28;20395;-87
2021/12/21 00:31:18;;;;;;;6.18;2.67;;;-2.20;99.90;;;;;;5043131;28;20048;-87
2021/12/21 00:33:46;;;;;;;3.50;2.00;;;-2.20;99.90;;;;;;5050986;28;20080;-85
2021/12/21 00:36:13;;;;;;;4.07;2.20;;;-2.20;99.90;;;;;;5052766;28;20500;-87
2021/12/21 00:38:39;;;;;;;7.63;2.88;;;-1.50;99.90;;;;;;5051556;28;20053;-87
2021/12/21 00:41:05;;;;;;;6.65;2.50;;;-2.40;99.90;;;;;;5051177;28;20067;-85
2021/12/21 00:43:33;;;;;;;6.78;2.88;;;-2.30;99.90;;;;;;5051291;28;20053;-85
2021/12/21 00:45:59;;;;;;;9.20;2.75;;;-2.30;99.90;;;;;;5049775;28;20053;-86
2021/12/21 00:48:29;;;;;;;6.70;2.65;;;-2.30;99.90;;;;;;5052321;28;20406;-86
2021/12/21 00:50:57;;;;;;;5.63;2.45;;;-1.00;99.90;;;;;;5052613;28;20056;-86
2021/12/21 00:53:23;;;;;;;4.97;1.92;;;-2.40;99.90;;;;;;5052577;28;20048;-86
2021/12/21 00:55:48;;;;;;;3.30;2.00;;;-1.20;99.90;;;;;;5052695;28;20087;-87
2021/12/21 00:58:14;;;;;;;7.03;2.35;;;-2.30;99.90;;;;;;5051984;28;20060;-84
2021/12/21 01:00:40;;;;;;;9.68;2.50;;;-2.30;99.90;;;;;;5057156;28;20139;-86
2021/12/21 01:07:32;;;;;;;5.50;2.25;;;-2.40;99.90;;;;;;5052845;28;20463;-85
2021/12/21 01:12:47;;;;;;;8.10;2.47;;;-2.50;99.90;;;;;;5056686;28;20057;-85
2021/12/21 01:18:03;;;;;;;4.97;2.22;;;-2.40;99.90;;;;;;5039001;28;20056;-85
2021/12/21 01:36:42;;;;;;;3.72;1.90;;;-2.30;99.90;;;;;;4990811;28;20137;-86
2021/12/21 01:44:25;;;;;;;5.05;1.60;;;-2.30;99.90;;;;;;4971413;28;20055;-87
2021/12/21 01:49:40;;;;;;;3.78;1.40;;;-1.90;99.90;;;;;;4974437;28;20124;-85
2021/12/21 01:52:08;;;;;;;5.18;1.63;;;-2.30;99.90;;;;;;4977918;28;20481;-85
2021/12/21 01:54:35;;;;;;;3.15;1.58;;;-1.80;99.90;;;;;;4977880;28;20058;-86
2021/12/21 01:57:00;;;;;;;5.63;2.35;;;-2.30;99.90;;;;;;4992168;28;20051;-84
2021/12/21 01:59:26;;;;;;;6.05;2.53;;;-2.30;99.90;;;;;;4993982;28;20104;-86
2021/12/21 02:01:52;;;;;;;5.38;2.20;;;-1.70;99.90;;;;;;4994192;28;20050;-86
2021/12/21 02:04:18;;;;;;;5.90;1.95;;;-2.40;99.90;;;;;;4993763;28;20114;-87
2021/12/21 02:06:44;;;;;;;6.13;2.55;;;-2.40;99.90;;;;;;4977641;28;20088;-85
2021/12/21 02:09:10;;;;;;;4.35;1.77;;;-2.40;99.90;;;;;;4977683;28;20093;-86
2021/12/21 02:11:36;;;;;;;5.90;2.40;;;-2.50;99.90;;;;;;5037780;28;20141;-85
2021/12/21 02:14:05;;;;;;;5.53;2.15;;;-2.50;99.90;;;;;;5054157;28;20132;-87
2021/12/21 02:16:53;;;;;;;5.20;2.13;;;-2.50;99.90;;;;;;5055196;28;20053;-86
2021/12/21 02:19:31;;;;;;;6.55;2.33;;;-0.60;99.90;;;;;;5052806;28;20048;-86
2021/12/21 02:22:07;;;;;;;3.65;2.38;;;-2.60;99.90;;;;;;5053930;28;20139;-86
2021/12/21 02:24:55;;;;;;;9.85;2.60;;;-2.60;99.90;;;;;;5049268;28;20114;-87
2021/12/21 02:27:30;;;;;;;5.93;1.90;;;-1.60;99.90;;;;;;5036524;28;20041;-86
2021/12/21 02:29:56;;;;;;;7.22;2.10;;;-2.60;99.90;;;;;;5036267;28;20582;-85
2021/12/21 02:32:22;;;;;;;5.90;2.53;;;-1.60;99.90;;;;;;5034887;28;20132;-87
2021/12/21 02:34:49;;;;;;;7.93;1.80;;;-2.60;99.90;;;;;;5045459;28;20075;-84
2021/12/21 02:37:15;;;;;;;4.15;1.85;;;-2.60;99.90;;;;;;5054620;28;20049;-86
2021/12/21 02:39:41;;;;;;;5.15;1.92;;;-2.20;99.90;;;;;;5037120;28;20072;-86
2021/12/21 02:42:07;;;;;;;4.65;2.15;;;-2.70;99.90;;;;;;5054901;28;20053;-87
2021/12/21 02:44:34;;;;;;;4.13;1.98;;;-2.60;99.90;;;;;;5054335;28;20082;-86
2021/12/21 02:46:59;;;;;;;3.97;1.92;;;-2.60;99.90;;;;;;5036598;28;20136;-86
2021/12/21 02:49:25;;;;;;;6.75;1.77;;;-2.60;99.90;;;;;;5054520;28;20120;-87
2021/12/21 02:51:51;;;;;;;1.95;1.50;;;-1.50;99.90;;;;;;5054554;28;20059;-86
2021/12/21 02:54:18;;;;;;;4.10;2.22;;;-2.60;99.90;;;;;;5036010;28;20053;-86
2021/12/21 02:56:45;;;;;;;4.45;2.00;;;-1.50;99.90;;;;;;5053315;28;20107;-85
2021/12/21 02:59:11;;;;;;;4.88;2.20;;;-1.60;99.90;;;;;;5036518;28;20053;-87
2021/12/21 03:01:37;;;;;;;4.68;2.22;;;-1.50;99.90;;;;;;5053419;28;20427;-85
2021/12/21 03:04:04;;;;;;;5.05;2.13;;;-2.60;99.90;;;;;;5036257;28;20059;-86
2021/12/21 03:07:03;;;;;;;3.78;2.20;;;-3.00;99.90;;;;;;5053468;28;20044;-87
2021/12/21 03:12:08;;;;;;;4.03;1.52;;;-2.60;99.90;;;;;;5054074;28;20562;-87
2021/12/21 03:14:34;;;;;;;5.50;2.08;;;-2.60;99.90;;;;;;5019693;28;20075;-85
2021/12/21 03:17:00;;;;;;;7.57;2.15;;;-2.40;99.90;;;;;;5035719;28;20136;-84
2021/12/21 03:19:25;;;;;;;4.32;2.10;;;-2.00;99.90;;;;;;5035818;28;20566;-86
2021/12/21 03:21:53;;;;;;;5.07;2.00;;;-2.70;99.90;;;;;;5053647;28;20049;-86
2021/12/21 03:24:19;;;;;;;4.45;2.17;;;-1.50;99.90;;;;;;5053920;28;20057;-85
2021/12/21 03:26:45;;;;;;;5.20;2.35;;;-2.60;99.90;;;;;;5053588;28;20044;-86
2021/12/21 03:29:11;;;;;;;6.47;2.90;;;-2.60;99.90;;;;;;5036092;28;20507;-87
2021/12/21 03:31:37;;;;;;;5.18;2.20;;;-2.60;99.90;;;;;;5036059;28;20059;-87
2021/12/21 03:34:04;;;;;;;5.18;2.50;;;-2.60;99.90;;;;;;5035474;28;20071;-86
2021/12/21 03:36:29;;;;;;;5.15;2.58;;;-2.50;99.90;;;;;;5053887;28;20076;-86
2021/12/21 03:39:04;;;;;;;6.53;2.40;;;-2.60;99.90;;;;;;5053446;28;20056;-86
2021/12/21 03:41:31;;;;;;;5.50;3.05;;;-2.60;99.90;;;;;;5053432;28;20493;-84
2021/12/21 03:44:00;;;;;;;5.60;2.70;;;-1.70;99.90;;;;;;5054091;28;20128;-86
2021/12/21 03:46:26;;;;;;;4.85;2.40;;;-1.00;99.90;;;;;;5054372;28;20067;-86
2021/12/21 03:48:52;;;;;;;5.88;2.70;;;-2.50;99.90;;;;;;5053581;28;20087;-87
2021/12/21 03:51:20;;;;;;;6.40;2.63;;;-2.50;99.90;;;;;;5054395;28;20084;-86
2021/12/21 03:53:47;;;;;;;4.85;2.47;;;-2.50;99.90;;;;;;5038037;28;20092;-84
2021/12/21 03:58:41;;;;;;;3.97;2.08;;;-1.70;99.90;;;;;;5053428;28;20053;-86
2021/12/21 04:01:07;;;;;;;8.57;3.15;;;-2.10;99.90;;;;;;5035263;28;20057;-85
2021/12/21 04:03:33;;;;;;;3.33;2.45;;;-2.40;99.90;;;;;;5035204;28;20088;-86
2021/12/21 04:05:59;;;;;;;4.40;2.42;;;-1.60;99.90;;;;;;5053184;28;20087;-86
2021/12/21 04:08:25;;;;;;;4.45;3.00;;;-2.50;99.90;;;;;;5035497;28;20488;-86
2021/12/21 04:10:50;;;;;;;4.75;3.08;;;-2.50;99.90;;;;;;5036277;28;20130;-85
2021/12/21 04:13:16;;;;;;;4.57;2.72;;;-2.80;99.90;;;;;;5034916;28;20481;-86
2021/12/21 04:15:43;;;;;;;5.43;2.60;;;-2.60;99.90;;;;;;5053052;28;20405;-87
2021/12/21 04:18:16;;;;;;;7.78;3.17;;;-2.50;99.90;;;;;;5034946;28;20049;-85
2021/12/21 04:20:42;;;;;;;7.03;2.83;;;-2.60;99.90;;;;;;5052725;28;20049;-86
2021/12/21 04:23:07;;;;;;;5.65;2.53;;;-2.60;99.90;;;;;;5034956;28;20063;-86
2021/12/21 04:25:34;;;;;;;5.60;2.88;;;-2.60;99.90;;;;;;5035124;28;20061;-86
2021/12/21 04:28:00;;;;;;;5.60;2.50;;;-2.60;99.90;;;;;;5034719;28;20053;-85
2021/12/21 04:30:26;;;;;;;6.68;2.45;;;-1.70;99.90;;;;;;5052321;28;20052;-86
2021/12/21 04:32:52;;;;;;;6.22;2.72;;;-1.50;99.90;;;;;;5052577;28;20037;-86
2021/12/21 04:35:20;;;;;;;4.35;2.50;;;-2.60;99.90;;;;;;5052669;28;20060;-86
2021/12/21 04:37:58;;;;;;;5.93;2.85;;;-2.60;99.90;;;;;;5052984;28;20397;-87
2021/12/21 04:40:37;;;;;;;5.75;3.50;;;-2.60;99.90;;;;;;5052543;28;20519;-86
2021/12/21 04:43:03;;;;;;;4.93;2.92;;;-2.60;99.90;;;;;;5052183;28;20516;-87
2021/12/21 04:45:29;;;;;;;7.97;3.65;;;-2.60;99.90;;;;;;5052438;28;20049;-86
2021/12/21 04:47:55;;;;;;;7.75;2.53;;;-2.00;99.90;;;;;;5052423;28;20079;-87
2021/12/21 04:50:21;;;;;;;4.75;3.10;;;-2.60;99.90;;;;;;5052381;28;20048;-85
2021/12/21 04:52:47;;;;;;;8.10;3.03;;;-2.70;99.90;;;;;;5052163;28;20600;-84
2021/12/21 04:55:12;;;;;;;4.40;2.58;;;-2.00;99.90;;;;;;5034812;28;20049;-84
2021/12/21 04:57:40;;;;;;;8.25;3.03;;;-2.30;99.90;;;;;;5034822;28;20052;-86
2021/12/21 05:00:07;;;;;;;5.95;2.58;;;-2.70;99.90;;;;;;5017699;28;20088;-86
2021/12/21 05:02:33;;;;;;;10.18;3.17;;;-2.70;99.90;;;;;;5017958;28;20064;-85
2021/12/21 05:04:59;;;;;;;5.15;2.58;;;-1.70;99.90;;;;;;5052195;28;20521;-86
2021/12/21 05:07:27;;;;;;;4.75;2.63;;;-2.80;99.90;;;;;;5034694;28;20061;-86
2021/12/21 05:09:57;;;;;;;6.10;2.72;;;-2.90;99.90;;;;;;5052370;28;20052;-87
2021/12/21 05:12:23;;;;;;;6.32;2.42;;;-2.90;99.90;;;;;;5052255;28;20064;-85
2021/12/21 05:14:50;;;;;;;4.78;2.53;;;-2.90;99.90;;;;;;5051573;28;20057;-85
2021/12/21 05:17:15;;;;;;;4.07;2.30;;;-2.80;99.90;;;;;;5052473;28;20056;-86
2021/12/21 05:19:41;;;;;;;5.05;2.17;;;-2.90;99.90;;;;;;5034593;28;20053;-86
2021/12/21 05:22:07;;;;;;;8.50;3.22;;;-2.60;99.90;;;;;;5052218;28;20139;-84
2021/12/21 05:24:32;;;;;;;5.82;2.60;;;-2.90;99.90;;;;;;5034070;28;20092;-86
2021/12/21 05:26:58;;;;;;;4.25;2.75;;;-3.00;99.90;;;;;;5055754;28;20105;-85
2021/12/21 05:29:24;;;;;;;4.47;2.50;;;-3.30;99.90;;;;;;5037960;28;20049;-86
2021/12/21 05:31:50;;;;;;;6.50;2.47;;;-3.00;99.90;;;;;;5056129;28;20036;-87
2021/12/21 05:34:16;;;;;;;5.78;2.88;;;-3.00;99.90;;;;;;5035829;28;20383;-85
2021/12/21 05:36:42;;;;;;;5.07;2.65;;;-2.30;99.90;;;;;;5021967;28;20122;-85
2021/12/21 05:39:16;;;;;;;6.68;3.03;;;-3.00;99.90;;;;;;5038644;28;20077;-86
2021/12/21 05:41:54;;;;;;;3.43;2.13;;;-3.10;99.90;;;;;;5035487;28;20057;-85
2021/12/21 05:44:23;;;;;;;5.55;2.63;;;-3.10;99.90;;;;;;5036175;28;20671;-86
2021/12/21 05:46:53;;;;;;;3.58;2.22;;;-3.10;99.90;;;;;;5038755;28;20084;-86
2021/12/21 05:49:21;;;;;;;4.70;2.67;;;-3.20;99.90;;;;;;5039552;28;20084;-85
2021/12/21 05:51:47;;;;;;;6.60;2.80;;;-3.20;99.90;;;;;;5035733;28;20096;-85
2021/12/21 05:54:13;;;;;;;6.20;2.50;;;-3.20;99.90;;;;;;5035825;28;20515;-86
2021/12/21 05:56:39;;;;;;;4.40;2.35;;;-3.20;99.90;;;;;;5035298;28;20054;-85
2021/12/21 05:59:05;;;;;;;6.47;2.65;;;-2.70;99.90;;;;;;5034749;28;20204;-84
2021/12/21 06:01:32;;;;;;;5.07;2.25;;;-3.30;99.90;;;;;;5035297;28;20524;-86
2021/12/21 06:03:58;;;;;;;4.68;2.58;;;;;;;;;;5035481;28;20398;-85
2021/12/21 06:06:24;;;;;;;4.90;2.45;;;-3.30;99.90;;;;;;5035176;28;20130;-84
2021/12/21 06:08:52;;;;;;;5.03;2.60;;;-3.30;99.90;;;;;;5035343;28;20513;-86
2021/12/21 06:11:19;;;;;;;7.13;2.75;;;-3.00;99.90;;;;;;5035239;28;20536;-84
2021/12/21 06:22:42;;;;;;;5.18;2.97;;;-3.30;99.90;;;;;;5035184;28;20081;-84
2021/12/21 06:27:21;;;;;;;5.53;3.22;;;-3.50;99.90;;;;;;5034705;28;20115;-86
2021/12/21 06:29:47;;;;;;;4.60;2.63;;;-3.50;99.90;;;;;;5034975;28;20449;-85
2021/12/21 06:32:13;;;;;;;5.55;2.78;;;-3.50;99.90;;;;;;5035131;28;20049;-86
2021/12/21 06:34:39;;;;;;;4.45;2.50;;;-3.60;99.90;;;;;;5042716;28;20056;-87
2021/12/21 06:37:05;;;;;;;5.88;2.85;;;-3.60;99.90;;;;;;5054633;28;20172;-86
2021/12/21 06:39:33;;;;;;;4.40;2.85;;;-3.60;99.90;;;;;;5053057;28;20053;-87
2021/12/21 06:41:59;;;;;;;6.07;2.85;;;-3.60;99.90;;;;;;5053346;28;20057;-87
2021/12/21 06:44:25;;;;;;;4.32;2.30;;;-2.90;99.90;;;;;;5053538;28;20049;-87
2021/12/21 06:52:20;;;;;;;7.03;2.40;;;-3.60;99.90;;;;;;5040475;28;20048;-87
2021/12/21 06:54:45;;;;;;;6.25;1.88;;;-2.90;99.90;;;;;;5053117;28;20490;-85
2021/12/21 06:57:11;;;;;;;5.78;2.88;;;-3.70;99.90;;;;;;5053249;28;20122;-86
2021/12/21 06:59:37;;;;;;;4.97;2.75;;;-3.70;99.90;;;;;;5053052;28;20057;-86
2021/12/21 07:02:03;;;;;;;6.72;3.22;;;-3.70;99.90;;;;;;5050869;28;20409;-81
2021/12/21 07:04:29;;;;;;;7.75;3.75;;;-3.70;99.90;;;;;;5042475;28;20061;-86
2021/12/21 07:06:57;;;;;;;9.07;3.67;;;-3.70;99.90;;;;;;5054411;28;20041;-86
2021/12/21 07:09:38;;;;;;;6.13;3.00;;;-3.70;99.90;;;;;;5053010;28;20053;-85
2021/12/21 07:20:20;;;;;;;6.15;2.53;;;-3.20;99.90;;;;;;5053796;28;20056;-85
2021/12/21 07:22:46;;;;;;;6.55;2.38;;;-2.70;99.90;;;;;;5053592;28;20056;-85
2021/12/21 07:25:12;;;;;;;5.90;2.42;;;-3.90;99.90;;;;;;5035914;28;20439;-85
2021/12/21 07:27:38;;;;;;;5.05;2.03;;;-3.70;99.90;;;;;;5032606;28;20132;-85
2021/12/21 07:30:05;;;;;;;6.20;2.15;;;-1.80;99.90;;;;;;5032664;28;20052;-85
2021/12/21 07:32:31;;;;;;;5.30;2.33;;;-3.60;99.90;;;;;;5049298;28;20064;-85
2021/12/21 07:34:57;;;;;;;4.10;1.92;;;-3.60;99.90;;;;;;5053374;28;20049;-85
2021/12/21 07:37:25;;;;;;;5.63;2.30;;;-3.60;99.90;;;;;;5052669;28;20436;-85
2021/12/21 07:39:54;;;;;;;3.08;2.10;;;-3.60;99.90;;;;;;5053237;28;20056;-84
2021/12/21 07:42:20;;;;;;;3.70;2.28;;;-3.50;99.90;;;;;;5053238;28;20056;-85
2021/12/21 07:44:46;;;;;;;4.72;2.60;;;-1.80;99.90;;;;;;5054081;28;20045;-85
2021/12/21 07:47:12;;;;;;;5.05;2.15;;;-2.80;99.90;;;;;;5047065;28;20060;-85
2021/12/21 07:49:38;;;;;;;3.92;1.92;;;-2.70;99.90;;;;;;5042314;28;20477;-87
2021/12/21 07:52:08;;;;;;;5.05;2.45;;;-3.60;99.90;;;;;;5048785;28;20067;-87
2021/12/21 07:54:35;;;;;;;6.25;2.72;;;-3.50;99.90;;;;;;5051947;28;20099;-85
2021/12/21 07:57:01;;;;;;;3.83;2.00;;;-2.80;99.90;;;;;;5053476;28;20067;-85
2021/12/21 07:59:26;;;;;;;5.15;2.45;;;-1.90;99.90;;;;;;5053382;28;20045;-85
2021/12/21 08:01:53;;;;;;;4.38;2.45;;;-3.50;99.90;;;;;;5051795;28;20048;-85
2021/12/21 08:04:21;;;;;;;3.15;1.98;;;-3.50;99.90;;;;;;5049790;28;20389;-84
2021/12/21 08:06:49;;;;;;;3.55;1.85;;;-3.50;99.90;;;;;;5052944;28;20056;-84
2021/12/21 08:09:16;;;;;;;4.82;2.22;;;-3.60;99.90;;;;;;5051748;28;20068;-84
2021/12/21 08:14:07;;;;;;;3.67;1.98;;;-3.60;99.90;;;;;;5051785;28;20390;-85
2021/12/21 08:16:34;;;;;;;5.18;2.38;;;-3.50;99.90;;;;;;5051809;28;20063;-85
2021/12/21 08:18:59;;;;;;;6.13;2.85;;;-3.60;99.90;;;;;;5051667;28;20048;-85
2021/12/21 08:21:26;;;;;;;6.25;2.78;;;-3.60;99.90;;;;;;5052701;28;20417;-85
2021/12/21 08:23:53;;;;;;;7.55;2.50;;;-3.10;99.90;;;;;;5046324;28;20052;-84
2021/12/21 08:26:19;;;;;;;5.60;2.30;;;;;;;;;;5052830;28;20136;-84
2021/12/21 08:28:45;;;;;;;4.38;1.98;;;-3.60;99.90;;;;;;5051370;28;20117;-85
2021/12/21 08:31:13;;;;;;;7.28;2.67;;;-3.70;99.90;;;;;;5051536;28;20483;-85
2021/12/21 08:33:41;;;;;;;4.03;2.10;;;0.00;99.90;;;;;;5050675;28;20052;-85
2021/12/21 08:36:08;;;;;;;8.38;3.50;;;-3.70;99.90;;;;;;5051549;28;20083;-84
2021/12/21 08:38:37;;;;;;;6.43;2.85;;;-3.70;99.90;;;;;;5052708;28;20439;-85
2021/12/21 08:41:06;;;;;;;3.22;2.00;;;-2.50;99.90;;;;;;5051414;28;20075;-85
2021/12/21 08:43:33;;;;;;;6.07;2.53;;;-3.70;99.90;;;;;;5053485;28;20068;-85
2021/12/21 08:46:00;;;;;;;5.20;2.60;;;-2.80;99.90;;;;;;5051036;28;20057;-86
2021/12/21 08:48:27;;;;;;;3.50;2.25;;;-3.60;99.90;;;;;;5051130;28;20053;-83
2021/12/21 08:50:55;;;;;;;4.72;2.50;;;-2.10;99.90;;;;;;5040174;28;20136;-85
2021/12/21 08:53:22;;;;;;;3.42;2.05;;;-2.40;99.90;;;;;;5030839;28;20056;-84
2021/12/21 08:55:48;;;;;;;3.55;2.00;;;-1.50;99.90;;;;;;5032624;28;20045;-85
2021/12/21 08:58:14;;;;;;;6.38;2.47;;;-2.00;99.90;;;;;;5032511;28;20387;-86
2021/12/21 09:00:41;;;;;;;8.05;2.72;;;-2.00;99.90;;;;;;5035950;28;20062;-86
2021/12/21 09:03:08;;;;;;;6.65;2.42;;;-3.40;99.90;;;;;;5035772;28;20093;-84
2021/12/21 09:05:34;;;;;;;4.78;2.85;;;-3.00;99.90;;;;;;5034958;28;20092;-86
2021/12/21 09:08:02;;;;;;;6.15;2.53;;;-3.30;99.90;;;;;;5036492;28;20387;-85
2021/12/21 09:10:30;;;;;;;7.63;2.42;;;-3.20;99.90;;;;;;5036251;28;20056;-86
2021/12/21 09:12:56;;;;;;;4.60;2.78;;;-3.10;99.90;;;;;;5036663;28;20054;-86
2021/12/21 09:15:23;;;;;;;5.68;2.63;;;-2.20;99.90;;;;;;5036438;28;20058;-86
2021/12/21 09:17:49;;;;;;;6.20;2.75;;;-3.00;99.90;;;;;;5035893;28;20485;-85
2021/12/21 09:20:18;;;;;;;7.40;2.95;;;-2.30;99.90;;;;;;5036022;28;20061;-85
2021/12/21 09:22:44;;;;;;;6.20;2.60;;;-2.70;99.90;;;;;;5039731;28;20053;-85
2021/12/21 09:25:11;;;;;;;6.65;2.80;;;-2.80;99.90;;;;;;5056409;28;20385;-86
2021/12/21 09:27:38;;;;;;;6.30;2.67;;;-2.70;99.90;;;;;;5056266;28;20049;-85
2021/12/21 09:30:07;;;;;;;4.78;2.40;;;-2.70;99.90;;;;;;5054678;28;20060;-84
2021/12/21 09:32:33;;;;;;;5.95;2.38;;;-2.60;99.90;;;;;;5055731;28;20512;-84
2021/12/21 09:34:59;;;;;;;5.35;2.78;;;-1.50;99.90;;;;;;5054189;28;20058;-85
2021/12/21 09:37:26;;;;;;;6.65;2.63;;;-2.50;99.90;;;;;;5055735;28;20092;-86
2021/12/21 09:39:54;;;;;;;6.75;2.53;;;-2.40;99.90;;;;;;5055652;28;20115;-86
2021/12/21 09:42:23;;;;;;;8.02;3.55;;;-2.10;99.90;;;;;;5055980;28;20045;-86
2021/12/21 09:44:49;;;;;;;9.00;2.90;;;-2.20;99.90;;;;;;5043025;28;20444;-84
2021/12/21 09:47:15;;;;;;;5.20;2.67;;;-2.20;99.90;;;;;;5035985;28;20057;-84
2021/12/21 09:49:42;;;;;;;7.22;2.58;;;-2.10;99.90;;;;;;5034326;28;20049;-81
2021/12/21 09:52:10;;;;;;;4.38;2.30;;;-2.00;99.90;;;;;;5035901;28;20049;-84
2021/12/21 09:54:37;;;;;;;5.47;2.85;;;-1.90;99.90;;;;;;5037779;28;20041;-84
2021/12/21 09:57:03;;;;;;;4.35;2.63;;;-1.90;99.90;;;;;;5035200;28;20108;-84
2021/12/21 09:59:29;;;;;;;4.47;2.40;;;-1.80;99.90;;;;;;5035383;28;20061;-85
2021/12/21 10:01:57;;;;;;;5.78;2.92;;;-1.70;99.90;;;;;;5037054;28;20465;-83
2021/12/21 10:04:27;;;;;;;3.40;2.10;;;-1.60;99.90;;;;;;5055282;28;20060;-83
2021/12/21 10:06:55;;;;;;;5.15;2.80;;;-1.50;99.90;;;;;;5055613;28;20061;-85
2021/12/21 10:09:35;;;;;;;4.50;2.00;;;-1.50;99.90;;;;;;5049595;28;20409;-85
2021/12/21 10:12:01;;;;;;;9.60;3.67;;;-1.40;99.90;;;;;;5051189;28;20124;-85
2021/12/21 10:14:27;;;;;;;5.18;2.72;;;-0.50;99.90;;;;;;5033965;28;20490;-85
2021/12/21 10:17:06;;;;;;;3.35;2.05;;;-1.20;99.90;;;;;;5034253;28;20049;-83
2021/12/21 10:19:32;;;;;;;4.50;1.90;;;-1.10;99.90;;;;;;5035442;28;20434;-87
2021/12/21 10:22:12;;;;;;;6.93;2.28;;;-1.00;99.90;;;;;;5035030;28;20060;-89
2021/12/21 10:24:45;;;;;;;7.50;2.42;;;-1.00;99.90;;;;;;5050949;28;20084;-87
2021/12/21 10:27:11;;;;;;;9.82;3.10;;;-0.90;99.90;;;;;;5055822;28;20064;-87
2021/12/21 10:29:46;;;;;;;3.40;2.20;;;-0.80;99.90;;;;;;5048292;28;20053;-89
2021/12/21 10:32:19;;;;;;;5.28;2.55;;;-0.70;99.90;;;;;;5053532;28;20417;-90
2021/12/21 10:35:02;;;;;;;5.97;2.90;;;-0.60;99.90;;;;;;5053563;28;20053;-81
2021/12/21 10:37:32;;;;;;;6.95;2.67;;;-0.50;99.90;;;;;;5049134;28;20053;-89
2021/12/21 10:40:11;;;;;;;8.35;3.30;;;-0.40;99.90;;;;;;5034850;28;20061;-85
2021/12/21 10:42:49;;;;;;;9.18;3.28;;;-0.40;99.90;;;;;;5012466;28;20061;-87
2021/12/21 10:45:16;;;;;;;4.72;3.00;;;-0.20;99.90;;;;;;5001142;28;20136;-82
2021/12/21 10:47:44;;;;;;;6.07;2.88;;;-0.10;99.90;;;;;;5015214;28;20121;-87
2021/12/21 10:50:10;;;;;;;6.55;2.70;;;0.00;99.90;;;;;;5013974;28;20112;-80
2021/12/21 10:52:36;;;;;;;7.20;3.35;;;0.00;99.90;;;;;;5013442;28;20100;-86
2021/12/21 10:55:05;;;;;;;4.88;2.95;;;0.10;99.90;;;;;;5013152;28;20054;-88
2021/12/21 10:57:33;;;;;;;5.85;3.05;;;0.20;99.90;;;;;;5013304;28;20050;-87
2021/12/21 11:00:04;;;;;;;6.95;2.22;;;0.30;99.90;;;;;;5014554;28;20053;-87
2021/12/21 11:02:33;;;;;;;8.30;3.30;;;0.40;99.90;;;;;;5014448;28;20057;-86
2021/12/21 11:05:08;;;;;;;6.45;3.38;;;0.40;99.90;;;;;;5014387;28;20069;-84
2021/12/21 11:10:35;;;;;;;5.65;3.03;;;0.60;99.90;;;;;;4973228;28;20121;-87
2021/12/21 11:13:08;;;;;;;5.20;3.20;;;0.70;99.90;;;;;;4973385;28;20069;-85
2021/12/21 11:15:38;;;;;;;6.45;2.03;;;0.80;99.90;;;;;;4957025;28;20054;-89
2021/12/21 11:18:18;;;;;;;3.38;1.95;;;0.30;99.90;;;;;;4973080;28;20047;-86
2021/12/21 11:20:45;;;;;;;4.25;2.00;;;1.30;99.90;;;;;;4956923;28;20515;-85
2021/12/21 11:23:13;;;;;;;4.97;2.08;;;1.00;99.90;;;;;;4972279;28;20117;-86
2021/12/21 11:25:42;;;;;;;3.38;1.95;;;0.60;99.90;;;;;;4956593;28;20106;-86
2021/12/21 11:28:10;;;;;;;5.53;2.45;;;1.10;99.90;;;;;;4974848;28;20134;-86
2021/12/21 11:30:36;;;;;;;3.70;1.60;;;1.10;99.90;;;;;;4943676;28;20059;-88
2021/12/21 11:33:06;;;;;;;7.55;3.10;;;1.20;99.90;;;;;;4953886;28;20057;-88
2021/12/21 11:38:11;;;;;;;7.72;3.58;;;2.20;99.90;;;;;;4954981;28;20534;-92
2021/12/21 11:40:42;;;;;;;6.90;2.58;;;2.10;99.90;;;;;;4937696;29;20499;-86
2021/12/21 11:43:08;;;;;;;8.98;3.35;;;1.50;99.90;;;;;;4953493;28;20051;-86
2021/12/21 11:45:41;;;;;;;6.55;3.22;;;1.60;99.90;;;;;;4953484;29;20408;-85
2021/12/21 11:48:09;;;;;;;5.38;2.90;;;1.70;99.90;;;;;;5023297;28;20425;-87
2021/12/21 11:50:38;;;;;;;6.75;2.60;;;2.30;99.90;;;;;;5033512;28;20053;-85
2021/12/21 11:53:06;;;;;;;4.50;2.13;;;2.30;99.90;;;;;;5033347;28;20045;-86
2021/12/21 11:55:35;;;;;;;9.18;3.50;;;1.80;99.90;;;;;;5016046;28;20089;-87
2021/12/21 11:58:20;;;;;;;6.40;2.25;;;2.00;99.90;;;;;;5033202;28;20053;-85
2021/12/21 12:00:52;;;;;;;2.95;2.03;;;2.00;99.90;;;;;;5014625;28;20054;-85
2021/12/21 12:03:21;;;;;;;6.53;3.05;;;2.10;99.90;;;;;;4995895;28;20049;-84
2021/12/21 12:06:11;;;;;;;6.75;2.50;;;2.20;99.90;;;;;;4995747;28;20188;-87
2021/12/21 12:08:55;;;;;;;6.80;2.95;;;2.30;99.90;;;;;;5023970;28;20061;-84
2021/12/21 12:14:10;;;;;;;5.57;2.40;;;2.40;99.90;;;;;;5108083;22;20553;-82
2021/12/21 12:16:52;;;;;;;5.20;3.17;;;2.80;99.90;;;;;;5055205;28;20422;-83
2021/12/21 12:19:21;;;;;;;5.28;2.95;;;2.60;99.90;;;;;;5072964;28;20456;-83
2021/12/21 12:21:54;;;;;;;6.57;2.65;;;2.70;99.90;;;;;;5072518;28;20139;-82
2021/12/21 12:24:22;;;;;;;3.72;2.08;;;2.70;99.90;;;;;;5054417;28;20044;-84
2021/12/21 12:27:16;;;;;;;4.10;2.00;;;2.80;99.90;;;;;;5054465;28;20117;-84
2021/12/21 12:29:50;;;;;;;4.88;2.25;;;2.80;99.90;;;;;;5071953;28;20051;-86
2021/12/21 12:32:28;;;;;;;3.77;2.00;;;2.80;99.90;;;;;;5034720;28;20060;-85
2021/12/21 12:35:05;;;;;;;5.97;2.22;;;2.70;99.90;;;;;;5034842;28;20048;-83
2021/12/21 12:37:31;;;;;;;5.65;2.10;;;2.70;99.90;;;;;;5052903;28;20052;-84
2021/12/21 12:40:09;;;;;;;6.65;2.83;;;3.00;99.90;;;;;;5052723;28;20473;-85
2021/12/21 12:42:35;;;;;;;3.33;2.03;;;2.50;99.90;;;;;;5044002;28;20067;-83
2021/12/21 12:45:07;;;;;;;5.40;2.13;;;3.10;99.90;;;;;;5072562;28;20037;-84
2021/12/21 12:47:35;;;;;;;3.00;1.70;;;2.40;99.90;;;;;;5072770;28;20049;-84
2021/12/21 12:50:01;;;;;;;7.50;3.35;;;3.70;99.90;;;;;;5054493;28;20491;-82
2021/12/21 12:52:31;;;;;;;5.13;2.17;;;2.60;99.90;;;;;;5072696;28;20049;-84
2021/12/21 12:55:04;;;;;;;5.78;2.03;;;2.30;99.90;;;;;;5072659;28;20059;-84
2021/12/21 12:57:34;;;;;;;9.57;2.90;;;2.30;99.90;;;;;;5072771;28;20443;-84
2021/12/21 13:00:14;;;;;;;4.50;1.80;;;2.80;99.90;;;;;;5072668;28;20500;-83
2021/12/21 13:02:57;;;;;;;2.92;1.52;;;2.20;99.90;;;;;;5054976;28;20060;-82
2021/12/21 13:05:35;;;;;;;4.50;1.65;;;3.00;99.90;;;;;;5072575;28;20044;-81
2021/12/21 13:08:16;;;;;;;5.00;2.15;;;2.60;99.90;;;;;;5072379;28;20048;-82
2021/12/21 13:10:45;;;;;;;4.55;1.67;;;2.10;99.90;;;;;;5072652;28;20123;-84
2021/12/21 13:13:12;;;;;;;6.95;2.58;;;2.10;99.90;;;;;;5054166;28;20053;-84
2021/12/21 13:15:47;;;;;;;6.40;2.33;;;2.10;99.90;;;;;;5072424;28;20064;-83
2021/12/21 13:18:18;;;;;;;5.90;1.80;;;2.10;99.90;;;;;;5072394;28;20051;-84
2021/12/21 13:20:46;;;;;;;3.63;1.75;;;2.90;99.90;;;;;;5073246;28;20056;-84
2021/12/21 13:23:19;;;;;;;4.97;1.60;;;2.10;99.90;;;;;;5073236;28;20057;-84
2021/12/21 13:26:18;;;;;;;2.58;1.55;;;2.40;99.90;;;;;;5072930;28;20397;-84
2021/12/21 13:28:52;;;;;;;2.92;1.52;;;2.00;99.90;;;;;;4990776;28;20141;-84
2021/12/21 13:31:20;;;;;;;5.80;2.17;;;2.00;99.90;;;;;;4990790;28;20062;-84
2021/12/21 13:33:54;;;;;;;2.50;1.50;;;3.20;99.90;;;;;;4990994;28;20109;-84
2021/12/21 13:36:34;;;;;;;4.13;1.50;;;2.00;99.90;;;;;;4974499;28;20054;-83
2021/12/21 13:39:02;;;;;;;4.90;1.50;;;2.60;99.90;;;;;;4974512;28;20506;-84
2021/12/21 13:41:30;;;;;;;4.05;1.63;;;1.90;99.90;;;;;;4990710;28;20129;-84
2021/12/21 13:43:59;;;;;;;4.18;1.23;;;1.90;99.90;;;;;;4957943;28;20491;-83
2021/12/21 13:46:31;;;;;;;3.10;1.20;;;1.90;99.90;;;;;;4991786;28;20058;-84
2021/12/21 13:48:58;;;;;;;5.18;1.65;;;1.90;99.90;;;;;;4977983;28;20434;-84
2021/12/21 13:51:25;;;;;;;5.32;1.52;;;2.70;99.90;;;;;;4994122;28;20094;-82
2021/12/21 13:53:58;;;;;;;5.43;1.50;;;2.50;99.90;;;;;;4994317;28;20051;-83
2021/12/21 13:56:29;;;;;;;4.10;1.60;;;1.80;99.90;;;;;;4994080;28;20433;-84
2021/12/21 13:58:56;;;;;;;3.88;1.48;;;2.10;99.90;;;;;;4977634;28;20133;-84
2021/12/21 14:01:25;;;;;;;4.45;1.55;;;2.70;99.90;;;;;;4993811;28;20062;-84
2021/12/21 14:04:03;;;;;;;4.78;1.63;;;1.70;99.90;;;;;;5020372;28;20099;-84
2021/12/21 14:06:29;;;;;;;3.90;1.30;;;1.70;99.90;;;;;;5075505;28;20055;-84
2021/12/21 14:08:57;;;;;;;2.80;1.40;;;1.30;99.90;;;;;;5075208;28;20407;-83
2021/12/21 14:11:35;;;;;;;2.75;1.45;;;2.40;99.90;;;;;;5075343;28;20199;-81
2021/12/21 14:14:09;;;;;;;4.63;1.83;;;1.60;99.90;;;;;;5074877;28;20135;-83
2021/12/21 14:16:39;;;;;;;2.75;1.48;;;2.00;99.90;;;;;;5075112;28;20064;-83
2021/12/21 14:19:07;;;;;;;3.80;1.60;;;1.60;99.90;;;;;;5074916;28;20063;-84